Time;durP1;ratioP1;P1;durP2;ratioP2;P2;SDS_P1;SDS_P2;PMS_P1;PMS_P2;Temp;Humidity;BMP_temperature;BMP_pressure;BME280_temperature;BME280_humidity;BME280_pressure;Samples;Min_cycle;Max_cycle;Signal;HPM_P1;HPM_P2
2023/11/09 00:02:14;;;;;;;12.40;7.87;;;;;;;;;;4332001;32;318429;-84
2023/11/09 00:04:43;;;;;;;11.47;7.73;;;;;;;;;;4320602;32;317918;-83
2023/11/09 00:07:10;;;;;;;8.87;7.37;;;;;;;;;;4333078;32;318071;-83
2023/11/09 00:09:36;;;;;;;11.30;7.83;;;;;;;;;;4323213;32;317178;-87
2023/11/09 00:12:04;;;;;;;10.27;8.33;;;;;;;;;;4326051;32;317464;-82
2023/11/09 00:14:32;;;;;;;7.87;7.03;;;;;;;;;;4333473;32;317949;-83
2023/11/09 00:16:59;;;;;;;8.87;6.77;;;;;;;;;;4325127;32;316719;-83
2023/11/09 00:19:26;;;;;;;7.23;6.53;;;;;;;;;;4335344;32;317281;-82
2023/11/09 00:21:54;;;;;;;12.50;7.53;;;;;;;;;;4311427;32;317236;-84
2023/11/09 00:24:21;;;;;;;10.60;7.33;;;;;;;;;;4333634;32;317490;-82
2023/11/09 00:26:50;;;;;;;11.50;7.77;;;;;;;;;;4322634;32;358426;-84
2023/11/09 00:29:17;;;;;;;11.83;8.87;;;;;;;;;;4336481;32;318784;-84
2023/11/09 00:31:43;;;;;;;11.57;8.37;;;;;;;;;;4321356;32;318103;-84
2023/11/09 00:34:10;;;;;;;12.13;9.27;;;;;;;;;;4336067;32;318541;-82
2023/11/09 00:36:37;;;;;;;11.70;9.67;;;;;;;;;;4312973;32;318613;-81
2023/11/09 00:39:07;;;;;;;11.47;8.90;;;;;;;;;;4320241;33;318335;-84
2023/11/09 00:41:34;;;;;;;10.70;8.60;;;;;;;;;;4321552;33;318531;-85
2023/11/09 00:44:00;;;;;;;9.60;7.77;;;;;;;;;;4305718;32;417578;-80
2023/11/09 00:46:27;;;;;;;12.00;7.70;;;;;;;;;;4323419;32;317651;-80
2023/11/09 00:48:54;;;;;;;11.63;9.23;;;;;;;;;;4313157;32;318418;-86
2023/11/09 00:51:21;;;;;;;13.60;9.10;;;;;;;;;;4324651;32;329980;-83
2023/11/09 00:53:48;;;;;;;17.37;9.10;;;;;;;;;;4303342;32;347591;-84
2023/11/09 00:56:17;;;;;;;10.27;8.57;;;;;;;;;;4319892;33;318416;-86
2023/11/09 00:58:44;;;;;;;11.03;7.83;;;;;;;;;;4301432;33;318284;-87
2023/11/09 01:01:10;;;;;;;10.00;8.17;;;;;;;;;;4318034;32;317999;-84
2023/11/09 01:03:38;;;;;;;12.23;7.40;;;;;;;;;;4309218;33;318813;-82
2023/11/09 01:06:07;;;;;;;11.30;8.53;;;;;;;;;;4316144;33;318511;-81
2023/11/09 01:08:34;;;;;;;9.33;8.07;;;;;;;;;;4301155;33;318263;-82
2023/11/09 01:11:05;;;;;;;8.67;7.87;;;;;;;;;;4315743;33;317460;-81
2023/11/09 01:13:34;;;;;;;9.77;7.80;;;;;;;;;;4308743;33;317297;-82
2023/11/09 01:16:01;;;;;;;8.67;7.53;;;;;;;;;;4316996;33;317021;-86
2023/11/09 01:18:28;;;;;;;11.63;8.20;;;;;;;;;;4307605;33;317931;-81
2023/11/09 01:20:55;;;;;;;14.03;8.23;;;;;;;;;;4313623;33;318572;-81
2023/11/09 01:23:24;;;;;;;8.00;6.73;;;;;;;;;;4307596;33;335623;-82
2023/11/09 01:25:50;;;;;;;14.33;7.40;;;;;;;;;;4320867;32;317848;-82
2023/11/09 01:28:17;;;;;;;12.00;6.40;;;;;;;;;;4319817;32;319127;-82
2023/11/09 01:30:47;;;;;;;8.47;6.97;;;;;;;;;;4301650;33;318252;-81
2023/11/09 01:33:13;;;;;;;9.47;7.00;;;;;;;;;;4317224;33;321535;-82
2023/11/09 01:35:40;;;;;;;8.43;6.37;;;;;;;;;;4306540;33;317681;-82
2023/11/09 01:38:07;;;;;;;12.60;6.97;;;;;;;;;;4318697;33;317966;-82
2023/11/09 01:40:35;;;;;;;14.50;8.17;;;;;;;;;;4297418;33;318364;-85
2023/11/09 01:43:02;;;;;;;7.77;6.97;;;;;;;;;;4317963;33;318114;-82
2023/11/09 01:45:29;;;;;;;12.20;7.53;;;;;;;;;;4307756;32;317513;-82
2023/11/09 01:47:58;;;;;;;7.90;6.67;;;;;;;;;;4317099;32;318688;-86
2023/11/09 01:50:25;;;;;;;8.03;6.47;;;;;;;;;;4308094;32;316939;-85
2023/11/09 01:52:52;;;;;;;10.53;6.80;;;;;;;;;;4317705;32;317569;-85
2023/11/09 01:55:21;;;;;;;8.57;6.13;;;;;;;;;;4319050;32;318501;-86
2023/11/09 01:57:49;;;;;;;10.50;7.70;;;;;;;;;;4305482;32;418310;-84
2023/11/09 02:00:17;;;;;;;10.53;6.90;;;;;;;;;;4316582;32;318598;-87
2023/11/09 02:02:44;;;;;;;13.53;8.10;;;;;;;;;;4301566;32;318523;-85
2023/11/09 02:05:12;;;;;;;9.07;7.90;;;;;;;;;;4317115;32;317943;-85
2023/11/09 02:07:40;;;;;;;12.57;8.63;;;;;;;;;;4308606;33;317889;-81
2023/11/09 02:10:11;;;;;;;9.37;7.20;;;;;;;;;;4317364;33;318501;-82
2023/11/09 02:12:38;;;;;;;7.03;5.53;;;;;;;;;;4292339;33;316655;-83
2023/11/09 02:15:05;;;;;;;8.33;6.37;;;;;;;;;;4315291;33;317367;-83
2023/11/09 02:17:32;;;;;;;10.27;6.90;;;;;;;;;;4307827;33;317654;-81
2023/11/09 02:20:00;;;;;;;6.30;5.63;;;;;;;;;;4317752;33;318072;-83
2023/11/09 02:22:28;;;;;;;8.80;6.10;;;;;;;;;;4307956;33;317808;-82
2023/11/09 02:24:58;;;;;;;7.43;5.70;;;;;;;;;;4312055;32;316800;-83
2023/11/09 02:27:25;;;;;;;7.10;6.13;;;;;;;;;;4293723;33;317297;-83
2023/11/09 02:29:51;;;;;;;7.23;5.80;;;;;;;;;;4324030;32;338591;-88
2023/11/09 02:32:18;;;;;;;11.53;6.10;;;;;;;;;;4332314;32;317567;-86
2023/11/09 02:34:48;;;;;;;8.20;5.87;;;;;;;;;;4308421;32;317973;-82
2023/11/09 02:37:15;;;;;;;6.93;6.00;;;;;;;;;;4320419;32;316804;-83
2023/11/09 02:39:42;;;;;;;7.77;6.40;;;;;;;;;;4321256;32;317392;-83
2023/11/09 02:42:11;;;;;;;7.77;6.20;;;;;;;;;;4332180;32;317053;-82
2023/11/09 02:44:39;;;;;;;6.30;5.67;;;;;;;;;;4316494;32;319761;-82
2023/11/09 02:47:06;;;;;;;8.50;5.17;;;;;;;;;;4331340;32;316836;-86
2023/11/09 02:49:33;;;;;;;9.33;5.20;;;;;;;;;;4321177;32;319132;-85
2023/11/09 02:52:00;;;;;;;8.80;6.50;;;;;;;;;;4332677;32;317366;-86
2023/11/09 02:54:27;;;;;;;8.00;6.87;;;;;;;;;;4321920;32;316446;-83
2023/11/09 02:56:54;;;;;;;6.50;5.80;;;;;;;;;;4326554;32;315942;-83
2023/11/09 02:59:22;;;;;;;9.37;6.67;;;;;;;;;;4320639;32;316394;-85
2023/11/09 03:01:49;;;;;;;11.73;7.97;;;;;;;;;;4332214;32;316529;-85
2023/11/09 03:04:17;;;;;;;15.50;8.37;;;;;;;;;;4330329;32;317715;-83
2023/11/09 03:06:44;;;;;;;8.67;6.83;;;;;;;;;;4312209;32;317028;-83
2023/11/09 03:09:12;;;;;;;10.93;8.00;;;;;;;;;;4331411;32;316333;-86
2023/11/09 03:11:39;;;;;;;14.33;10.47;;;;;;;;;;4321500;32;317091;-85
2023/11/09 03:14:06;;;;;;;11.37;7.67;;;;;;;;;;4331109;32;318568;-85
2023/11/09 03:16:34;;;;;;;12.27;8.93;;;;;;;;;;4316896;32;317707;-88
2023/11/09 03:19:02;;;;;;;11.40;8.70;;;;;;;;;;4331063;32;317064;-85
2023/11/09 03:21:29;;;;;;;10.47;7.93;;;;;;;;;;4320987;32;317501;-85
2023/11/09 03:23:56;;;;;;;10.33;8.43;;;;;;;;;;4332835;32;317683;-84
2023/11/09 03:26:23;;;;;;;12.30;8.20;;;;;;;;;;4321114;32;317531;-83
2023/11/09 03:28:50;;;;;;;9.07;8.00;;;;;;;;;;4325176;32;317674;-82
2023/11/09 03:31:17;;;;;;;9.43;7.83;;;;;;;;;;4330988;32;315902;-81
2023/11/09 03:33:45;;;;;;;9.80;8.47;;;;;;;;;;4320088;32;316626;-85
2023/11/09 03:36:18;;;;;;;13.70;7.87;;;;;;;;;;4329196;32;316808;-84
2023/11/09 03:38:45;;;;;;;8.00;7.13;;;;;;;;;;4314542;32;317764;-82
2023/11/09 03:41:12;;;;;;;10.73;9.50;;;;;;;;;;4331352;32;316524;-82
2023/11/09 03:43:40;;;;;;;18.23;11.83;;;;;;;;;;4318553;32;317867;-82
2023/11/09 03:46:12;;;;;;;59.53;36.07;;;;;;;;;;4330190;32;318330;-85
2023/11/09 03:48:39;;;;;;;23.83;18.93;;;;;;;;;;4314823;32;318812;-85
2023/11/09 03:51:10;;;;;;;28.40;17.90;;;;;;;;;;4332820;32;317789;-85
2023/11/09 03:53:36;;;;;;;14.00;10.90;;;;;;;;;;4322625;32;318484;-84
2023/11/09 03:56:03;;;;;;;12.43;11.03;;;;;;;;;;4331292;32;319014;-82
2023/11/09 03:58:31;;;;;;;14.80;10.33;;;;;;;;;;4319650;32;317766;-84
2023/11/09 04:00:58;;;;;;;17.73;9.23;;;;;;;;;;4325537;32;318737;-82
2023/11/09 04:03:25;;;;;;;12.03;9.43;;;;;;;;;;4320920;32;317576;-81
2023/11/09 04:05:52;;;;;;;11.20;9.20;;;;;;;;;;4329908;32;317674;-81
2023/11/09 04:08:20;;;;;;;11.57;7.53;;;;;;;;;;4331643;32;317162;-81
2023/11/09 04:10:47;;;;;;;9.03;6.63;;;;;;;;;;4311036;32;417369;-82
2023/11/09 04:13:14;;;;;;;7.63;6.47;;;;;;;;;;4330980;32;340268;-82
2023/11/09 04:15:41;;;;;;;6.87;5.90;;;;;;;;;;4320391;32;316187;-82
2023/11/09 04:18:07;;;;;;;6.97;6.20;;;;;;;;;;4332526;32;316200;-84
2023/11/09 04:20:34;;;;;;;9.50;5.77;;;;;;;;;;4316583;32;316302;-85
2023/11/09 04:23:01;;;;;;;7.87;5.97;;;;;;;;;;4331793;32;316758;-82
2023/11/09 04:25:30;;;;;;;7.03;5.97;;;;;;;;;;4322480;32;316511;-84
2023/11/09 04:27:58;;;;;;;7.80;6.50;;;;;;;;;;4334787;33;316649;-86
2023/11/09 04:30:28;;;;;;;9.13;7.23;;;;;;;;;;4329144;33;316872;-86
2023/11/09 04:32:59;;;;;;;7.90;6.63;;;;;;;;;;4332861;33;324176;-85
2023/11/09 04:35:26;;;;;;;10.07;7.17;;;;;;;;;;4311326;33;316321;-83
2023/11/09 04:37:55;;;;;;;10.73;7.87;;;;;;;;;;4334104;32;317637;-82
2023/11/09 04:40:25;;;;;;;17.20;11.90;;;;;;;;;;4320021;33;317303;-83
2023/11/09 04:42:56;;;;;;;13.80;9.50;;;;;;;;;;4325602;33;319045;-83
2023/11/09 04:45:25;;;;;;;11.13;9.13;;;;;;;;;;4320677;33;345230;-82
2023/11/09 04:47:55;;;;;;;14.63;10.20;;;;;;;;;;4335083;33;317158;-81
2023/11/09 04:50:28;;;;;;;17.47;10.80;;;;;;;;;;4329291;33;317800;-83
2023/11/09 04:53:03;;;;;;;22.80;10.57;;;;;;;;;;4330095;32;318011;-84
2023/11/09 04:55:43;;;;;;;17.37;11.30;;;;;;;;;;4309783;33;318276;-80
2023/11/09 05:09:08;;;;;;;10.77;9.47;;;;;;;;;;4334337;32;316374;-87
2023/11/09 05:11:34;;;;;;;10.63;9.50;;;;;;;;;;4323847;32;317638;-83
2023/11/09 05:14:03;;;;;;;9.30;7.67;;;;;;;;;;4332534;32;317488;-83
2023/11/09 05:16:30;;;;;;;11.00;8.60;;;;;;;;;;4320827;32;316231;-91
2023/11/09 05:18:56;;;;;;;16.10;9.10;;;;;;;;;;4322089;32;317956;-89
2023/11/09 05:21:24;;;;;;;10.37;8.30;;;;;;;;;;4314647;32;318438;-87
2023/11/09 05:23:51;;;;;;;14.03;8.77;;;;;;;;;;4331114;32;316782;-82
2023/11/09 05:26:18;;;;;;;10.80;8.43;;;;;;;;;;4326823;32;318371;-82
2023/11/09 05:28:45;;;;;;;17.87;9.73;;;;;;;;;;4315448;32;317393;-85
2023/11/09 05:31:14;;;;;;;20.27;13.77;;;;;;;;;;4334356;32;317592;-84
2023/11/09 05:33:40;;;;;;;14.90;12.90;;;;;;;;;;4324013;32;318527;-84
2023/11/09 05:36:08;;;;;;;24.20;13.27;;;;;;;;;;4333992;32;318836;-85
2023/11/09 05:38:35;;;;;;;18.43;14.50;;;;;;;;;;4316156;32;318699;-83
2023/11/09 05:41:04;;;;;;;23.40;17.07;;;;;;;;;;4333113;32;318045;-83
2023/11/09 05:43:30;;;;;;;37.53;19.23;;;;;;;;;;4324621;32;318325;-83
2023/11/09 05:45:57;;;;;;;25.60;16.13;;;;;;;;;;4332601;32;318447;-83
2023/11/09 05:48:25;;;;;;;25.63;17.70;;;;;;;;;;4302148;32;318320;-83
2023/11/09 05:50:54;;;;;;;28.87;19.90;;;;;;;;;;4327652;32;318587;-83
2023/11/09 05:53:22;;;;;;;34.57;20.50;;;;;;;;;;4328635;32;318634;-84
2023/11/09 05:55:49;;;;;;;42.67;32.57;;;;;;;;;;4333061;32;318368;-83
2023/11/09 05:58:16;;;;;;;58.30;36.50;;;;;;;;;;4332426;32;317997;-83
2023/11/09 06:00:43;;;;;;;74.77;41.90;;;;;;;;;;4313027;32;318619;-84
2023/11/09 06:03:10;;;;;;;84.10;48.83;;;;;;;;;;4332589;32;317563;-81
2023/11/09 06:05:39;;;;;;;90.37;47.27;;;;;;;;;;4323133;32;318159;-81
2023/11/09 06:08:08;;;;;;;98.63;49.33;;;;;;;;;;4331120;32;318361;-87
2023/11/09 06:10:35;;;;;;;83.43;45.77;;;;;;;;;;4317373;32;317957;-87
2023/11/09 06:13:02;;;;;;;85.50;43.73;;;;;;;;;;4331708;32;318604;-87
2023/11/09 06:15:29;;;;;;;84.40;39.90;;;;;;;;;;4322717;32;318475;-87
2023/11/09 06:17:56;;;;;;;74.03;39.17;;;;;;;;;;4331261;32;318658;-85
2023/11/09 06:20:24;;;;;;;57.30;35.17;;;;;;;;;;4321135;32;318643;-87
2023/11/09 06:22:53;;;;;;;56.97;33.53;;;;;;;;;;4308936;32;318120;-84
2023/11/09 06:25:20;;;;;;;83.40;54.53;;;;;;;;;;4330983;32;319265;-87
2023/11/09 06:27:47;;;;;;;55.40;35.63;;;;;;;;;;4318780;32;417761;-86
2023/11/09 06:30:14;;;;;;;44.53;26.13;;;;;;;;;;4326518;32;318037;-86
2023/11/09 06:32:41;;;;;;;42.23;26.73;;;;;;;;;;4298576;32;318207;-87
2023/11/09 06:35:13;;;;;;;48.60;26.73;;;;;;;;;;4314742;33;318827;-85
2023/11/09 06:37:45;;;;;;;35.57;24.30;;;;;;;;;;4307017;33;318726;-85
2023/11/09 06:40:16;;;;;;;38.53;24.13;;;;;;;;;;4302575;33;318568;-85
2023/11/09 06:42:45;;;;;;;35.40;22.30;;;;;;;;;;4290250;33;319387;-86
2023/11/09 06:45:12;;;;;;;34.20;23.07;;;;;;;;;;4315287;33;318790;-85
2023/11/09 06:47:40;;;;;;;27.80;17.73;;;;;;;;;;4306533;33;318236;-86
2023/11/09 06:50:11;;;;;;;24.53;16.07;;;;;;;;;;4309769;33;318379;-86
2023/11/09 06:52:39;;;;;;;47.30;30.07;;;;;;;;;;4298878;33;354810;-87
2023/11/09 06:55:06;;;;;;;32.27;23.93;;;;;;;;;;4307995;33;318216;-82
2023/11/09 06:57:35;;;;;;;54.97;31.67;;;;;;;;;;4295851;33;352939;-84
2023/11/09 07:00:05;;;;;;;32.77;20.17;;;;;;;;;;4301890;33;318155;-81
2023/11/09 07:02:32;;;;;;;37.33;22.77;;;;;;;;;;4298276;33;346077;-82
2023/11/09 07:04:59;;;;;;;28.47;19.73;;;;;;;;;;4314575;33;318927;-82
2023/11/09 07:07:27;;;;;;;27.87;17.97;;;;;;;;;;4305206;33;337881;-83
2023/11/09 07:09:54;;;;;;;25.33;17.53;;;;;;;;;;4314830;32;317811;-82
2023/11/09 07:12:20;;;;;;;29.10;20.73;;;;;;;;;;4314333;33;318583;-83
2023/11/09 07:14:49;;;;;;;38.23;21.27;;;;;;;;;;4295402;32;416856;-83
2023/11/09 07:17:15;;;;;;;31.57;21.93;;;;;;;;;;4307461;32;317883;-82
2023/11/09 07:19:43;;;;;;;28.27;21.07;;;;;;;;;;4302899;33;318852;-83
2023/11/09 07:22:10;;;;;;;22.33;17.17;;;;;;;;;;4316904;33;318648;-85
2023/11/09 07:24:40;;;;;;;27.17;17.33;;;;;;;;;;4278384;33;317778;-87
2023/11/09 07:27:09;;;;;;;26.77;15.37;;;;;;;;;;4324690;32;318666;-86
2023/11/09 07:29:36;;;;;;;16.07;11.47;;;;;;;;;;4320376;32;318537;-86
2023/11/09 07:32:06;;;;;;;15.77;11.60;;;;;;;;;;4323513;32;317840;-86
2023/11/09 07:34:33;;;;;;;15.10;11.30;;;;;;;;;;4306804;32;330569;-84
2023/11/09 07:37:03;;;;;;;17.00;12.73;;;;;;;;;;4330926;32;346365;-84
2023/11/09 07:39:30;;;;;;;29.77;22.00;;;;;;;;;;4321067;32;318982;-87
2023/11/09 07:41:59;;;;;;;19.03;13.73;;;;;;;;;;4329811;32;318185;-84
2023/11/09 07:44:27;;;;;;;19.57;14.00;;;;;;;;;;4320759;32;318388;-85
2023/11/09 07:46:54;;;;;;;19.93;12.97;;;;;;;;;;4318929;32;317899;-84
2023/11/09 07:49:24;;;;;;;15.83;11.40;;;;;;;;;;4306151;33;318270;-84
2023/11/09 07:51:52;;;;;;;12.30;10.53;;;;;;;;;;4312933;32;417019;-84
2023/11/09 07:54:21;;;;;;;12.33;9.83;;;;;;;;;;4331108;32;318260;-82
2023/11/09 07:56:48;;;;;;;19.27;12.30;;;;;;;;;;4309718;32;416289;-84
2023/11/09 07:59:15;;;;;;;14.67;11.40;;;;;;;;;;4331008;32;318350;-85
2023/11/09 08:01:43;;;;;;;19.67;12.00;;;;;;;;;;4319514;32;318420;-82
2023/11/09 08:04:12;;;;;;;24.97;15.03;;;;;;;;;;4331088;32;319872;-83
2023/11/09 08:06:42;;;;;;;17.07;11.00;;;;;;;;;;4311389;32;319296;-82
2023/11/09 08:09:12;;;;;;;25.93;16.10;;;;;;;;;;4328943;32;319258;-84
2023/11/09 08:11:42;;;;;;;17.53;13.10;;;;;;;;;;4309677;32;318892;-82
2023/11/09 08:14:08;;;;;;;17.07;11.60;;;;;;;;;;4323178;33;319642;-82
2023/11/09 08:16:35;;;;;;;16.20;12.23;;;;;;;;;;4312492;32;320197;-84
2023/11/09 08:19:03;;;;;;;14.33;11.53;;;;;;;;;;4331088;32;344908;-86
2023/11/09 08:21:30;;;;;;;14.87;11.70;;;;;;;;;;4321951;33;319276;-84
2023/11/09 08:23:58;;;;;;;16.17;11.47;;;;;;;;;;4331744;32;319369;-85
2023/11/09 08:26:25;;;;;;;17.63;11.37;;;;;;;;;;4320161;33;320583;-84
2023/11/09 08:28:53;;;;;;;18.93;10.13;;;;;;;;;;4324545;33;319237;-86
2023/11/09 08:31:21;;;;;;;16.30;10.00;;;;;;;;;;4330609;33;318813;-84
2023/11/09 08:33:49;;;;;;;33.20;16.53;;;;;;;;;;4317568;33;420678;-83
2023/11/09 08:36:16;;;;;;;11.00;7.90;;;;;;;;;;4318681;33;319474;-86
2023/11/09 08:38:43;;;;;;;9.07;7.33;;;;;;;;;;4303164;33;318309;-84
2023/11/09 08:41:11;;;;;;;8.53;7.63;;;;;;;;;;4314690;33;316785;-83
2023/11/09 08:43:38;;;;;;;13.90;8.43;;;;;;;;;;4307686;32;317298;-82
2023/11/09 08:46:05;;;;;;;14.23;8.93;;;;;;;;;;4316893;32;318175;-86
2023/11/09 08:48:33;;;;;;;31.93;14.67;;;;;;;;;;4297149;32;353150;-86
2023/11/09 08:51:00;;;;;;;19.70;8.47;;;;;;;;;;4317599;33;318787;-84
2023/11/09 08:53:31;;;;;;;11.30;7.97;;;;;;;;;;4316608;33;318239;-85
2023/11/09 08:55:58;;;;;;;10.53;8.17;;;;;;;;;;4318061;33;318254;-86
2023/11/09 08:58:26;;;;;;;11.07;7.47;;;;;;;;;;4312227;33;318780;-86
2023/11/09 09:00:53;;;;;;;10.97;7.27;;;;;;;;;;4307285;33;318074;-86
2023/11/09 09:03:23;;;;;;;16.23;11.17;;;;;;;;;;4319503;33;318282;-86
2023/11/09 09:05:52;;;;;;;9.50;7.03;;;;;;;;;;4309147;32;417441;-86
2023/11/09 09:08:26;;;;;;;10.33;7.07;;;;;;;;;;4325217;33;357776;-87
2023/11/09 09:10:56;;;;;;;13.73;6.97;;;;;;;;;;4296602;32;418372;-88
2023/11/09 09:13:26;;;;;;;13.00;7.67;;;;;;;;;;4307516;32;318015;-85
2023/11/09 09:15:55;;;;;;;9.97;6.80;;;;;;;;;;4315107;33;318317;-87
2023/11/09 09:18:23;;;;;;;14.23;6.67;;;;;;;;;;4303315;32;317443;-86
2023/11/09 09:20:50;;;;;;;12.53;6.43;;;;;;;;;;4305440;33;317897;-87
2023/11/09 09:23:17;;;;;;;5.50;5.00;;;;;;;;;;4318150;32;318472;-87
2023/11/09 09:25:44;;;;;;;7.57;6.07;;;;;;;;;;4305529;32;317557;-87
2023/11/09 09:28:11;;;;;;;8.93;7.30;;;;;;;;;;4322172;32;318135;-89
2023/11/09 09:30:38;;;;;;;10.00;7.53;;;;;;;;;;4313389;32;316483;-90
2023/11/09 09:33:08;;;;;;;9.20;6.37;;;;;;;;;;4329448;32;318108;-89
2023/11/09 09:35:35;;;;;;;18.70;10.13;;;;;;;;;;4309264;32;317908;-92
2023/11/09 09:38:04;;;;;;;12.10;7.73;;;;;;;;;;4331833;32;319219;-90
2023/11/09 09:40:32;;;;;;;16.00;9.40;;;;;;;;;;4317424;32;318550;-84
2023/11/09 09:43:00;;;;;;;7.37;6.03;;;;;;;;;;4326826;32;317702;-87
2023/11/09 09:45:30;;;;;;;11.03;7.67;;;;;;;;;;4306969;33;317263;-85
2023/11/09 09:47:59;;;;;;;8.77;7.03;;;;;;;;;;4310695;32;318711;-84
2023/11/09 09:50:29;;;;;;;12.10;8.37;;;;;;;;;;4320121;32;317170;-87
2023/11/09 09:52:57;;;;;;;5.60;4.73;;;;;;;;;;4325194;32;318698;-85
2023/11/09 09:55:26;;;;;;;10.43;8.00;;;;;;;;;;4311094;33;316513;-87
2023/11/09 09:57:54;;;;;;;8.17;5.80;;;;;;;;;;4328345;32;318476;-85
2023/11/09 10:00:26;;;;;;;6.07;5.00;;;;;;;;;;4332114;32;317667;-90
2023/11/09 10:02:55;;;;;;;6.90;5.13;;;;;;;;;;4309712;32;417939;-85
2023/11/09 10:05:24;;;;;;;8.17;5.00;;;;;;;;;;4318765;32;317643;-86
2023/11/09 10:08:07;;;;;;;10.20;5.60;;;;;;;;;;4331683;32;317330;-88
2023/11/09 10:10:36;;;;;;;12.70;5.80;;;;;;;;;;4315012;32;317604;-86
2023/11/09 10:13:06;;;;;;;7.97;6.00;;;;;;;;;;4329256;32;317692;-84
2023/11/09 10:15:34;;;;;;;14.73;9.03;;;;;;;;;;4322063;32;317030;-89
2023/11/09 10:18:02;;;;;;;17.63;8.27;;;;;;;;;;4333152;32;317714;-85
2023/11/09 10:20:29;;;;;;;10.37;4.70;;;;;;;;;;4317492;32;350800;-86
2023/11/09 10:22:57;;;;;;;4.60;4.13;;;;;;;;;;4315481;32;319551;-83
2023/11/09 10:25:28;;;;;;;5.87;3.70;;;;;;;;;;4321669;32;316692;-86
2023/11/09 10:28:00;;;;;;;9.37;4.03;;;;;;;;;;4332940;32;317152;-91
2023/11/09 10:30:28;;;;;;;7.27;4.60;;;;;;;;;;4320466;32;398983;-84
2023/11/09 10:33:03;;;;;;;5.80;4.60;;;;;;;;;;4327930;32;317481;-87
2023/11/09 10:35:31;;;;;;;7.27;4.10;;;;;;;;;;4322193;32;317177;-86
2023/11/09 10:37:58;;;;;;;3.60;2.57;;;;;;;;;;4328145;32;341576;-86
2023/11/09 10:40:29;;;;;;;6.47;3.87;;;;;;;;;;4318060;32;317029;-86
2023/11/09 10:43:00;;;;;;;10.27;6.80;;;;;;;;;;4328064;32;317367;-86
2023/11/09 10:45:30;;;;;;;7.13;3.73;;;;;;;;;;4321319;32;318166;-86
2023/11/09 10:48:00;;;;;;;7.07;4.13;;;;;;;;;;4331600;32;317043;-87
2023/11/09 10:50:28;;;;;;;4.50;2.73;;;;;;;;;;4320814;32;317254;-85
2023/11/09 10:52:57;;;;;;;4.97;2.60;;;;;;;;;;4323964;32;316320;-87
2023/11/09 10:55:25;;;;;;;6.73;4.00;;;;;;;;;;4321406;32;316663;-87
2023/11/09 10:57:54;;;;;;;4.20;2.93;;;;;;;;;;4329258;32;349604;-88
2023/11/09 11:00:34;;;;;;;8.87;4.07;;;;;;;;;;4331357;32;316420;-87
2023/11/09 11:03:27;;;;;;;7.30;4.70;;;;;;;;;;4327468;32;386249;-89
2023/11/09 11:06:01;;;;;;;5.13;3.40;;;;;;;;;;4312928;32;417462;-88
2023/11/09 11:08:31;;;;;;;4.33;3.67;;;;;;;;;;4310776;32;317167;-87
2023/11/09 11:11:00;;;;;;;5.87;3.90;;;;;;;;;;4314004;33;317135;-92
2023/11/09 11:13:32;;;;;;;7.90;3.60;;;;;;;;;;4299795;32;316648;-93
2023/11/09 11:16:35;;;;;;;20.90;4.65;;;;;;;;;;4314637;33;316765;-87
2023/11/09 11:19:34;;;;;;;7.50;4.03;;;;;;;;;;4307462;33;418136;-94
2023/11/09 11:22:22;;;;;;;6.30;3.80;;;;;;;;;;4314907;32;417101;-88
2023/11/09 11:25:28;;;;;;;4.47;3.93;;;;;;;;;;4309137;32;417351;-88
2023/11/09 11:27:57;;;;;;;7.00;3.87;;;;;;;;;;4309275;32;419457;-89
2023/11/09 11:30:32;;;;;;;6.80;4.00;;;;;;;;;;4319244;32;329938;-88
2023/11/09 11:33:00;;;;;;;4.18;3.78;;;;;;;;;;4320004;32;317954;-88
2023/11/09 11:35:33;;;;;;;5.17;4.30;;;;;;;;;;4329256;32;317355;-85
2023/11/09 11:38:06;;;;;;;5.57;3.83;;;;;;;;;;4309732;32;318580;-87
2023/11/09 11:40:34;;;;;;;7.30;4.57;;;;;;;;;;4325277;32;315747;-87
2023/11/09 11:43:02;;;;;;;5.20;3.63;;;;;;;;;;4321304;32;317774;-87
2023/11/09 11:45:31;;;;;;;7.63;3.57;;;;;;;;;;4317436;32;317583;-87
2023/11/09 11:48:01;;;;;;;6.57;4.67;;;;;;;;;;4309947;32;318117;-88
2023/11/09 11:50:28;;;;;;;7.03;3.87;;;;;;;;;;4326066;32;317303;-87
2023/11/09 11:52:57;;;;;;;5.37;4.17;;;;;;;;;;4320279;32;317786;-87
2023/11/09 11:55:28;;;;;;;6.30;4.57;;;;;;;;;;4329379;32;332657;-88
2023/11/09 11:58:04;;;;;;;6.87;4.50;;;;;;;;;;4313629;32;317432;-86
2023/11/09 12:00:40;;;;;;;8.63;5.60;;;;;;;;;;4329216;32;317094;-90
2023/11/09 12:03:10;;;;;;;14.37;5.47;;;;;;;;;;4306758;33;317866;-89
2023/11/09 12:05:40;;;;;;;6.77;4.03;;;;;;;;;;4329854;33;317895;-87
2023/11/09 12:08:12;;;;;;;6.63;4.10;;;;;;;;;;4314053;33;317182;-88
2023/11/09 12:10:40;;;;;;;9.13;5.00;;;;;;;;;;4331568;32;316644;-90
2023/11/09 12:13:07;;;;;;;12.90;5.37;;;;;;;;;;4314588;32;318412;-89
2023/11/09 12:15:34;;;;;;;8.03;4.13;;;;;;;;;;4324151;32;331488;-90
2023/11/09 12:18:03;;;;;;;5.33;3.93;;;;;;;;;;4314949;32;317684;-88
2023/11/09 12:20:33;;;;;;;8.40;3.87;;;;;;;;;;4332490;32;316684;-87
2023/11/09 12:23:05;;;;;;;6.00;3.23;;;;;;;;;;4328984;32;317155;-87
2023/11/09 12:25:51;;;;;;;6.53;3.10;;;;;;;;;;4338066;32;317349;-88
2023/11/09 12:28:18;;;;;;;4.43;3.00;;;;;;;;;;4317612;32;418546;-90
2023/11/09 12:30:48;;;;;;;6.70;2.93;;;;;;;;;;4327645;32;317550;-84
2023/11/09 12:33:16;;;;;;;3.60;1.90;;;;;;;;;;4335309;32;317039;-88
2023/11/09 12:35:59;;;;;;;3.93;2.47;;;;;;;;;;4335369;32;317328;-89
2023/11/09 12:38:26;;;;;;;3.00;2.20;;;;;;;;;;4320641;32;415532;-88
2023/11/09 12:40:53;;;;;;;3.23;1.90;;;;;;;;;;4322923;32;316502;-88
2023/11/09 12:43:20;;;;;;;3.47;2.40;;;;;;;;;;4331253;32;317318;-88
2023/11/09 12:46:02;;;;;;;3.97;2.30;;;;;;;;;;4323409;32;317149;-88
2023/11/09 12:48:36;;;;;;;2.80;2.47;;;;;;;;;;4332562;32;317446;-87
2023/11/09 12:51:04;;;;;;;2.93;1.97;;;;;;;;;;4335472;32;317440;-87
2023/11/09 12:53:35;;;;;;;3.17;1.50;;;;;;;;;;4335461;32;316028;-86
2023/11/09 12:56:03;;;;;;;2.63;1.97;;;;;;;;;;4327089;32;320130;-86
2023/11/09 12:58:34;;;;;;;1.70;1.60;;;;;;;;;;4346582;32;316489;-87
2023/11/09 13:01:03;;;;;;;1.90;1.70;;;;;;;;;;4327397;32;317062;-87
2023/11/09 13:03:32;;;;;;;3.37;1.97;;;;;;;;;;4329580;32;338885;-88
2023/11/09 13:06:09;;;;;;;3.53;1.63;;;;;;;;;;4316320;32;317486;-87
2023/11/09 13:08:36;;;;;;;2.50;1.90;;;;;;;;;;4333813;32;316638;-87
2023/11/09 13:11:04;;;;;;;3.27;2.03;;;;;;;;;;4319424;32;317694;-84
2023/11/09 13:13:34;;;;;;;3.67;1.70;;;;;;;;;;4328266;32;317363;-84
2023/11/09 13:16:14;;;;;;;2.03;1.63;;;;;;;;;;4313693;32;317404;-87
2023/11/09 13:18:42;;;;;;;2.30;1.90;;;;;;;;;;4329185;32;316522;-83
2023/11/09 13:21:15;;;;;;;3.00;1.70;;;;;;;;;;4317656;32;417428;-85
2023/11/09 13:23:46;;;;;;;2.17;1.87;;;;;;;;;;4330097;32;326562;-87
2023/11/09 13:26:19;;;;;;;4.40;1.60;;;;;;;;;;4313862;32;418749;-87
2023/11/09 13:28:47;;;;;;;8.43;1.60;;;;;;;;;;4325424;32;317400;-87
2023/11/09 13:31:20;;;;;;;2.17;1.63;;;;;;;;;;4333920;32;317286;-87
2023/11/09 13:33:51;;;;;;;2.57;2.10;;;;;;;;;;4324580;32;316650;-85
2023/11/09 13:36:29;;;;;;;2.73;1.83;;;;;;;;;;4328067;32;317148;-86
2023/11/09 13:39:32;;;;;;;5.63;1.70;;;;;;;;;;4317286;32;317548;-86
2023/11/09 13:41:51;;;;;;;9.10;3.17;;;;;;;;;;4320649;32;317314;-86
2023/11/09 13:44:19;;;;;;;4.27;2.00;;;;;;;;;;4321217;32;317493;-88
2023/11/09 13:46:46;;;;;;;6.03;2.73;;;;;;;;;;4320863;32;317417;-88
2023/11/09 13:49:19;;;;;;;2.70;2.00;;;;;;;;;;4310137;32;317556;-90
2023/11/09 13:51:57;;;;;;;4.50;2.73;;;;;;;;;;4323026;32;317288;-90
2023/11/09 13:54:28;;;;;;;6.40;2.50;;;;;;;;;;4331077;32;316879;-90
2023/11/09 13:59:42;;;;;;;3.20;2.00;;;;;;;;;;4331163;32;317624;-90
2023/11/09 14:02:16;;;;;;;7.87;2.37;;;;;;;;;;4311457;32;416540;-90
2023/11/09 14:04:46;;;;;;;4.23;2.20;;;;;;;;;;4331183;32;317105;-89
2023/11/09 14:07:15;;;;;;;3.27;2.10;;;;;;;;;;4320825;32;415548;-89
2023/11/09 14:09:42;;;;;;;8.47;4.43;;;;;;;;;;4331817;32;317178;-88
2023/11/09 14:12:12;;;;;;;5.63;3.07;;;;;;;;;;4312864;32;347022;-88
2023/11/09 14:14:45;;;;;;;9.80;4.60;;;;;;;;;;4333468;32;316465;-88
2023/11/09 14:17:16;;;;;;;14.93;4.60;;;;;;;;;;4318788;32;417345;-89
2023/11/09 14:19:53;;;;;;;12.80;4.83;;;;;;;;;;4332846;32;328679;-87
2023/11/09 14:22:20;;;;;;;10.37;6.23;;;;;;;;;;4319839;32;419130;-87
2023/11/09 14:24:49;;;;;;;10.27;6.90;;;;;;;;;;4321726;32;318077;-84
2023/11/09 14:27:16;;;;;;;13.80;9.20;;;;;;;;;;4331177;32;318087;-90
2023/11/09 14:29:46;;;;;;;19.17;9.97;;;;;;;;;;4330311;32;357409;-83
2023/11/09 14:32:15;;;;;;;23.73;10.80;;;;;;;;;;4313096;32;417904;-86
2023/11/09 14:34:43;;;;;;;20.50;11.17;;;;;;;;;;4329162;32;318552;-85
2023/11/09 14:37:15;;;;;;;13.43;9.73;;;;;;;;;;4320394;32;418085;-85
2023/11/09 14:39:44;;;;;;;9.27;7.23;;;;;;;;;;4331210;32;318639;-86
2023/11/09 14:42:13;;;;;;;11.23;6.90;;;;;;;;;;4313371;32;416193;-87
2023/11/09 14:44:41;;;;;;;8.83;6.23;;;;;;;;;;4332282;32;317413;-87